createdAt,value
2017-06-12T00:00:24.433Z,99.41
2017-06-12T00:01:24.424Z,99.51
2017-06-12T00:02:24.416Z,99.41
2017-06-12T00:03:24.406Z,99.41
2017-06-12T00:04:24.095Z,99.51
2017-06-12T00:05:24.388Z,99.6
2017-06-12T00:06:24.381Z,99.99
2017-06-12T00:07:24.373Z,99.7
2017-06-12T00:08:24.367Z,99.32
2017-06-12T00:09:24.355Z,99.32
2017-06-12T00:10:24.346Z,99.89
2017-06-12T00:11:24.341Z,99.89
2017-06-12T00:12:24.330Z,99.32
2017-06-12T00:13:24.322Z,99.7
2017-06-12T00:14:24.313Z,99.89
2017-06-12T00:15:24.306Z,99.41
2017-06-12T00:16:24.298Z,99.22
2017-06-12T00:17:24.288Z,99.41
2017-06-12T00:18:24.283Z,99.41
2017-06-12T00:19:24.274Z,99.89
2017-06-12T00:20:24.268Z,99.32
2017-06-12T00:21:24.258Z,99.7
2017-06-12T00:22:24.253Z,99.7
2017-06-12T00:23:24.243Z,99.99
2017-06-12T00:24:24.235Z,99.99
2017-06-12T00:25:24.222Z,99.99
2017-06-12T00:26:24.218Z,99.99
2017-06-12T00:27:24.211Z,99.99
2017-06-12T00:28:24.201Z,99.99
2017-06-12T00:29:24.194Z,99.99
2017-06-12T00:30:24.186Z,99.99
2017-06-12T00:31:24.179Z,99.99
2017-06-12T00:32:24.167Z,99.99
2017-06-12T00:33:24.160Z,99.8
2017-06-12T00:34:24.153Z,99.99
2017-06-12T00:35:24.144Z,99.8
2017-06-12T00:36:24.138Z,99.99
2017-06-12T00:37:24.131Z,99.99
2017-06-12T00:38:24.122Z,99.99
2017-06-12T00:39:24.114Z,99.99
2017-06-12T00:40:24.103Z,99.8
2017-06-12T00:41:24.097Z,99.99
2017-06-12T00:42:24.088Z,99.99
2017-06-12T00:43:24.079Z,99.89
2017-06-12T00:44:24.079Z,99.89
2017-06-12T00:45:24.064Z,99.8
2017-06-12T00:46:24.058Z,99.89
2017-06-12T00:47:24.047Z,99.99
2017-06-12T00:48:24.040Z,99.7
2017-06-12T00:49:24.051Z,99.99
2017-06-12T00:50:24.025Z,99.99
2017-06-12T00:51:24.037Z,99.99
2017-06-12T00:52:24.004Z,99.99
2017-06-12T00:53:23.998Z,99.99
2017-06-12T00:54:23.985Z,99.99
2017-06-12T00:55:23.979Z,99.99
2017-06-12T00:56:23.668Z,99.99
2017-06-12T00:57:23.960Z,99.99
2017-06-12T00:58:23.952Z,99.99
2017-06-12T00:59:23.944Z,99.99
2017-06-12T01:00:23.934Z,99.99
2017-06-12T01:01:23.928Z,99.99
2017-06-12T01:02:23.919Z,99.99
2017-06-12T01:03:23.914Z,99.99
2017-06-12T01:04:23.904Z,99.99
2017-06-12T01:05:23.893Z,99.99
2017-06-12T01:06:23.885Z,99.99
2017-06-12T01:07:23.875Z,99.99
2017-06-12T01:08:23.866Z,99.99
2017-06-12T01:09:23.859Z,99.99
2017-06-12T01:10:23.850Z,99.89
2017-06-12T01:11:23.543Z,99.99
2017-06-12T01:12:23.833Z,99.8
2017-06-12T01:13:23.826Z,99.99
2017-06-12T01:14:23.818Z,99.65
2017-06-12T01:15:23.807Z,99.6
2017-06-12T01:16:23.803Z,99.7
2017-06-12T01:17:23.794Z,99.75
2017-06-12T01:18:23.784Z,99.27
2017-06-12T01:19:23.775Z,99.18
2017-06-12T01:20:23.768Z,99.37
2017-06-12T01:21:23.762Z,99.08
2017-06-12T01:22:23.449Z,99.37
2017-06-12T01:23:23.744Z,99.37
2017-06-12T01:24:23.736Z,99.37
2017-06-12T01:25:23.726Z,99.27
2017-06-12T01:26:23.722Z,99.27
2017-06-12T01:27:23.711Z,99.75
2017-06-12T01:28:23.704Z,99.08
2017-06-12T01:29:23.700Z,99.27
2017-06-12T01:30:23.687Z,99.46
2017-06-12T01:31:23.677Z,98.99
2017-06-12T01:32:23.369Z,99.27
2017-06-12T01:33:23.664Z,99.46
2017-06-12T01:34:23.654Z,99.27
2017-06-12T01:35:23.647Z,99.46
2017-06-12T01:36:23.639Z,99.46
2017-06-12T01:37:23.632Z,99.46
2017-06-12T01:38:23.623Z,98.99
2017-06-12T01:39:23.613Z,99.37
2017-06-12T01:40:23.305Z,99.18
2017-06-12T01:41:23.599Z,99.18
2017-06-12T01:42:23.591Z,99.18
2017-06-12T01:43:23.580Z,99.27
2017-06-12T01:44:23.574Z,99.27
2017-06-12T01:45:23.564Z,99.18
2017-06-12T01:46:23.557Z,99.08
2017-06-12T01:47:23.550Z,99.08
2017-06-12T01:48:23.239Z,99.08
2017-06-12T01:49:23.531Z,98.99
2017-06-12T01:50:23.523Z,99.18
2017-06-12T01:51:23.516Z,99.27
2017-06-12T01:52:23.506Z,99.27
2017-06-12T01:53:23.496Z,99.18
2017-06-12T01:54:23.487Z,99.08
2017-06-12T01:55:23.478Z,99.27
2017-06-12T01:56:23.473Z,99.18
2017-06-12T01:57:23.463Z,99.18
2017-06-12T01:58:23.457Z,99.08
2017-06-12T01:59:23.446Z,99.18
2017-06-12T02:00:23.442Z,99.18
2017-06-12T02:01:23.430Z,99.27
2017-06-12T02:02:23.419Z,99.27
2017-06-12T02:03:23.413Z,99.08
2017-06-12T02:04:23.402Z,99.08
2017-06-12T02:05:23.397Z,99.27
2017-06-12T02:06:23.393Z,99.27
2017-06-12T02:07:23.376Z,99.08
2017-06-12T02:08:23.377Z,98.99
2017-06-12T02:09:23.361Z,99.08
2017-06-12T02:10:23.355Z,98.99
2017-06-12T02:11:23.348Z,99.27
2017-06-12T02:12:23.339Z,99.18
2017-06-12T02:13:23.330Z,99.37
2017-06-12T02:14:23.322Z,99.27
2017-06-12T02:15:23.311Z,99.27
2017-06-12T02:16:23.303Z,99.08
2017-06-12T02:17:23.296Z,99.18
2017-06-12T02:18:23.287Z,99.37
2017-06-12T02:19:23.281Z,98.99
2017-06-12T02:20:23.270Z,98.89
2017-06-12T02:21:23.264Z,98.89
2017-06-12T02:22:23.259Z,98.99
2017-06-12T02:23:23.246Z,99.08
2017-06-12T02:24:23.240Z,98.99
2017-06-12T02:25:23.229Z,99.18
2017-06-12T02:26:23.222Z,99.18
2017-06-12T02:27:23.214Z,98.99
2017-06-12T02:28:23.202Z,98.99
2017-06-12T02:29:23.195Z,99.18
2017-06-12T02:30:23.189Z,99.18
2017-06-12T02:31:23.180Z,98.79
2017-06-12T02:32:23.167Z,98.89
2017-06-12T02:33:23.163Z,98.99
2017-06-12T02:34:23.153Z,98.79
2017-06-12T02:35:23.143Z,98.99
2017-06-12T02:36:23.133Z,99.08
2017-06-12T02:37:23.125Z,99.03
2017-06-12T02:38:23.119Z,98.6
2017-06-12T02:39:23.108Z,98.27
2017-06-12T02:40:23.100Z,98.36
2017-06-12T02:41:23.090Z,98.55
2017-06-12T02:42:23.082Z,98.55
2017-06-12T02:43:23.075Z,98.08
2017-06-12T02:44:23.065Z,98.27
2017-06-12T02:45:23.058Z,98.36
2017-06-12T02:46:23.050Z,98.08
2017-06-12T02:47:23.039Z,97.99
2017-06-12T02:48:23.030Z,97.79
2017-06-12T02:49:23.021Z,97.99
2017-06-12T02:50:23.014Z,97.99
2017-06-12T02:51:23.003Z,97.94
2017-06-12T02:52:22.995Z,98.18
2017-06-12T02:53:22.989Z,97.89
2017-06-12T02:54:22.977Z,97.99
2017-06-12T02:55:22.972Z,98.08
2017-06-12T02:56:22.659Z,98.18
2017-06-12T02:57:22.952Z,97.41
2017-06-12T02:58:22.943Z,97.41
2017-06-12T02:59:22.935Z,97.41
2017-06-12T03:00:22.924Z,97.51
2017-06-12T03:01:22.920Z,97.7
2017-06-12T03:02:22.910Z,97.13
2017-06-12T03:03:22.901Z,96.84
2017-06-12T03:04:22.891Z,96.75
2017-06-12T03:05:22.884Z,96.94
2017-06-12T03:06:22.874Z,97.13
2017-06-12T03:07:22.868Z,97.13
2017-06-12T03:08:22.859Z,97.03
2017-06-12T03:09:22.853Z,96.36
2017-06-12T03:10:22.846Z,96.84
2017-06-12T03:11:22.833Z,96.75
2017-06-12T03:12:22.826Z,96.65
2017-06-12T03:13:22.814Z,96.84
2017-06-12T03:14:22.808Z,96.75
2017-06-12T03:15:22.803Z,96.55
2017-06-12T03:16:22.791Z,96.75
2017-06-12T03:17:22.778Z,96.27
2017-06-12T03:18:22.773Z,96.65
2017-06-12T03:19:22.763Z,96.46
2017-06-12T03:20:22.751Z,96.46
2017-06-12T03:21:22.747Z,96.55
2017-06-12T03:22:22.740Z,96.55
2017-06-12T03:23:22.729Z,96.55
2017-06-12T03:24:22.719Z,96.75
2017-06-12T03:25:22.712Z,96.84
2017-06-12T03:26:22.703Z,96.46
2017-06-12T03:27:22.691Z,96.65
2017-06-12T03:28:22.686Z,96.8
2017-06-12T03:29:22.675Z,96.75
2017-06-12T03:30:22.665Z,96.6
2017-06-12T03:31:22.658Z,96.55
2017-06-12T03:32:22.649Z,96.65
2017-06-12T03:33:22.640Z,96.55
2017-06-12T03:34:22.629Z,96.55
2017-06-12T03:35:22.621Z,96.75
2017-06-12T03:36:22.617Z,96.75
2017-06-12T03:37:22.602Z,96.65
2017-06-12T03:38:22.593Z,96.65
2017-06-12T03:39:22.586Z,96.17
2017-06-12T03:40:22.574Z,95.98
2017-06-12T03:41:22.567Z,96.27
2017-06-12T03:42:22.559Z,95.89
2017-06-12T03:43:22.550Z,96.17
2017-06-12T03:44:22.542Z,95.98
2017-06-12T03:45:22.534Z,95.98
2017-06-12T03:46:22.525Z,96.27
2017-06-12T03:47:22.514Z,95.98
2017-06-12T03:48:22.508Z,95.79
2017-06-12T03:49:22.497Z,96.08
2017-06-12T03:50:22.485Z,95.98
2017-06-12T03:51:22.482Z,95.51
2017-06-12T03:52:22.469Z,95.41
2017-06-12T03:53:22.462Z,95.6
2017-06-12T03:54:22.454Z,95.41
2017-06-12T03:55:22.473Z,95.03
2017-06-12T03:56:22.433Z,95.12
2017-06-12T03:57:22.427Z,95.22
2017-06-12T03:58:22.417Z,95.22
2017-06-12T03:59:22.408Z,95.22
2017-06-12T04:00:22.399Z,95.03
2017-06-12T04:01:22.090Z,95.22
2017-06-12T04:02:22.382Z,94.65
2017-06-12T04:03:22.378Z,94.84
2017-06-12T04:04:22.364Z,95.03
2017-06-12T04:05:22.355Z,94.46
2017-06-12T04:06:22.343Z,94.27
2017-06-12T04:07:22.337Z,94.65
2017-06-12T04:08:22.328Z,94.17
2017-06-12T04:09:22.315Z,94.46
2017-06-12T04:10:22.311Z,94.56
2017-06-12T04:11:22.302Z,94.65
2017-06-12T04:12:22.291Z,93.98
2017-06-12T04:13:22.284Z,94.74
2017-06-12T04:14:22.273Z,94.65
2017-06-12T04:15:22.265Z,94.56
2017-06-12T04:16:22.252Z,94.37
2017-06-12T04:17:22.247Z,94.37
2017-06-12T04:18:22.234Z,94.79
2017-06-12T04:19:22.224Z,94.42
2017-06-12T04:20:22.220Z,93.94
2017-06-12T04:21:22.211Z,93.94
2017-06-12T04:22:22.200Z,93.74
2017-06-12T04:23:22.189Z,93.51
2017-06-12T04:24:22.182Z,93.6
2017-06-12T04:25:22.172Z,93.41
2017-06-12T04:26:22.159Z,93.32
2017-06-12T04:27:22.153Z,93.13
2017-06-12T04:28:22.142Z,92.94
2017-06-12T04:29:22.134Z,93.32
2017-06-12T04:30:22.131Z,93.13
2017-06-12T04:31:22.117Z,93.22
2017-06-12T04:32:22.106Z,93.22
2017-06-12T04:33:22.097Z,93.6
2017-06-12T04:34:22.087Z,93.51
2017-06-12T04:35:22.080Z,93.22
2017-06-12T04:36:22.070Z,93.22
2017-06-12T04:37:22.061Z,93.51
2017-06-12T04:38:22.048Z,93.51
2017-06-12T04:39:22.040Z,93.6
2017-06-12T04:40:22.032Z,93.22
2017-06-12T04:41:22.026Z,92.99
2017-06-12T04:42:22.010Z,92.79
2017-06-12T04:43:22.004Z,92.99
2017-06-12T04:44:21.994Z,93.37
2017-06-12T04:45:21.987Z,93.18
2017-06-12T04:46:21.973Z,92.7
2017-06-12T04:47:21.964Z,92.79
2017-06-12T04:48:21.956Z,92.99
2017-06-12T04:49:21.946Z,92.6
2017-06-12T04:50:21.935Z,92.89
2017-06-12T04:51:21.926Z,92.6
2017-06-12T04:52:21.918Z,92.7
2017-06-12T04:53:21.909Z,92.13
2017-06-12T04:54:21.900Z,92.41
2017-06-12T04:55:21.887Z,92.13
2017-06-12T04:56:21.877Z,92.13
2017-06-12T04:57:21.868Z,92.03
2017-06-12T04:58:21.859Z,91.84
2017-06-12T04:59:21.850Z,91.75
2017-06-12T05:00:21.839Z,91.65
2017-06-12T05:01:21.854Z,91.94
2017-06-12T05:02:21.824Z,91.65
2017-06-12T05:03:21.811Z,91.84
2017-06-12T05:04:21.804Z,91.51
2017-06-12T05:05:21.818Z,91.46
2017-06-12T05:06:21.780Z,91.37
2017-06-12T05:07:21.771Z,91.32
2017-06-12T05:08:21.761Z,91.56
2017-06-12T05:09:21.757Z,90.84
2017-06-12T05:10:21.742Z,90.75
2017-06-12T05:11:21.737Z,90.84
2017-06-12T05:12:21.725Z,90.75
2017-06-12T05:13:21.411Z,90.18
2017-06-12T05:14:21.708Z,90.37
2017-06-12T05:15:21.694Z,90.42
2017-06-12T05:16:21.687Z,89.75
2017-06-12T05:17:21.678Z,89.7
2017-06-12T05:18:21.669Z,89.51
2017-06-12T05:19:21.659Z,89.32
2017-06-12T05:20:21.650Z,89.51
2017-06-12T05:21:21.645Z,89.41
2017-06-12T05:22:21.630Z,89.32
2017-06-12T05:23:21.624Z,89.32
2017-06-12T05:24:21.611Z,89.51
2017-06-12T05:25:21.604Z,89.98
2017-06-12T05:26:21.599Z,89.51
2017-06-12T05:27:21.585Z,90.08
2017-06-12T05:28:21.581Z,90.12
2017-06-12T05:29:21.594Z,89.84
2017-06-12T05:30:21.558Z,89.94
2017-06-12T05:31:21.551Z,90.31
2017-06-12T05:32:21.541Z,91.17
2017-06-12T05:33:21.534Z,90.56
2017-06-12T05:34:21.521Z,91.17
2017-06-12T05:35:21.512Z,91.65
2017-06-12T05:36:21.506Z,91.51
2017-06-12T05:37:21.498Z,91.13
2017-06-12T05:38:21.485Z,90.89
2017-06-12T05:39:21.480Z,90.89
2017-06-12T05:40:21.470Z,90.5
2017-06-12T05:41:21.462Z,90.31
2017-06-12T05:42:21.450Z,90.45
2017-06-12T05:43:21.444Z,90.55
2017-06-12T05:44:21.436Z,90.64
2017-06-12T05:45:21.429Z,90.97
2017-06-12T05:46:21.419Z,91.74
2017-06-12T05:47:21.411Z,91.79
2017-06-12T05:48:21.402Z,92.6
2017-06-12T05:49:21.396Z,92.41
2017-06-12T05:50:21.386Z,92.88
2017-06-12T05:51:21.377Z,93.08
2017-06-12T05:52:21.371Z,92.98
2017-06-12T05:53:21.360Z,93.32
2017-06-12T05:54:21.350Z,92.88
2017-06-12T05:55:21.346Z,92.93
2017-06-12T05:56:21.035Z,93.07
2017-06-12T05:57:21.329Z,93.17
2017-06-12T05:58:21.318Z,93.5
2017-06-12T05:59:21.314Z,93.6
2017-06-12T06:00:21.306Z,94.51
2017-06-12T06:01:21.299Z,94.51
2017-06-12T06:02:21.287Z,95.37
2017-06-12T06:03:21.281Z,95.61
2017-06-12T06:04:21.278Z,95.36
2017-06-12T06:05:21.264Z,95.79
2017-06-12T06:06:21.256Z,95.41
2017-06-12T06:07:20.948Z,94.56
2017-06-12T06:08:21.241Z,95.03
2017-06-12T06:09:20.931Z,95.41
2017-06-12T06:10:21.225Z,94.98
2017-06-12T06:11:21.219Z,95.65
2017-06-12T06:12:21.211Z,95.65
2017-06-12T06:13:20.901Z,95.27
2017-06-12T06:14:21.195Z,95.12
2017-06-12T06:15:21.187Z,95.75
2017-06-12T06:16:21.180Z,95.84
2017-06-12T06:17:21.174Z,95.98
2017-06-12T06:18:21.161Z,96.89
2017-06-12T06:19:21.154Z,96.56
2017-06-12T06:20:21.151Z,96.56
2017-06-12T06:21:21.140Z,95.98
2017-06-12T06:22:21.136Z,95.94
2017-06-12T06:23:21.125Z,95.94
2017-06-12T06:24:21.114Z,96.27
2017-06-12T06:25:21.106Z,96.37
2017-06-12T06:26:21.098Z,96.17
2017-06-12T06:27:21.096Z,96.75
2017-06-12T06:28:21.086Z,97.03
2017-06-12T06:29:21.291Z,96.98
2017-06-12T06:33:21.050Z,97.13
2017-06-12T06:34:21.038Z,96.61
2017-06-12T06:35:21.031Z,96.56
2017-06-12T06:36:21.022Z,97.28
2017-06-12T06:37:21.015Z,98.08
2017-06-12T06:38:21.009Z,98.37
2017-06-12T06:39:21.199Z,98.32
2017-06-12T06:40:20.996Z,98.9
2017-06-12T06:41:20.982Z,98.56
2017-06-12T06:42:20.979Z,98.7
2017-06-12T06:43:20.969Z,98.79
2017-06-12T06:44:20.663Z,98.89
2017-06-12T06:45:20.953Z,98.79
2017-06-12T06:46:20.945Z,98.99
2017-06-12T06:47:20.937Z,98.41
2017-06-12T06:48:20.927Z,98.32
2017-06-12T06:49:20.919Z,98.41
2017-06-12T06:50:20.913Z,97.84
2017-06-12T06:51:20.602Z,97.61
2017-06-12T06:52:20.593Z,97.89
2017-06-12T06:53:20.886Z,98.22
2017-06-12T06:54:20.874Z,97.56
2017-06-12T06:55:20.867Z,97.94
2017-06-12T06:56:20.862Z,97.79
2017-06-12T06:57:20.854Z,97.65
2017-06-12T06:58:20.846Z,97.65
2017-06-12T06:59:20.835Z,97.75
2017-06-12T07:00:20.825Z,97.84
2017-06-12T07:01:20.821Z,97.51
2017-06-12T07:02:20.807Z,97.6
2017-06-12T07:03:20.797Z,97.99
2017-06-12T07:04:20.792Z,97.03
2017-06-12T07:05:20.479Z,97.22
2017-06-12T07:06:20.470Z,96.94
2017-06-12T07:07:20.762Z,97.27
2017-06-12T07:08:20.755Z,97.27
2017-06-12T07:09:20.746Z,96.89
2017-06-12T07:10:20.738Z,96.51
2017-06-12T07:11:20.725Z,96.79
2017-06-12T07:12:20.719Z,96.41
2017-06-12T07:13:20.919Z,96.12
2017-06-12T07:14:20.700Z,95.84
2017-06-12T07:15:20.388Z,96.08
2017-06-12T07:16:20.681Z,95.56
2017-06-12T07:17:20.674Z,95.84
2017-06-12T07:18:20.666Z,95.27
2017-06-12T07:19:20.654Z,95.27
2017-06-12T07:20:20.647Z,95.36
2017-06-12T07:21:20.637Z,95.36
2017-06-12T07:22:20.628Z,94.7
2017-06-12T07:23:20.619Z,94.98
2017-06-12T07:24:20.620Z,94.79
2017-06-12T07:25:20.598Z,95.27
2017-06-12T07:26:20.586Z,94.42
2017-06-12T07:27:20.581Z,94.13
2017-06-12T07:28:20.575Z,94.32
2017-06-12T07:29:20.567Z,94.22
2017-06-12T07:30:20.562Z,93.37
2017-06-12T07:31:20.546Z,93.37
2017-06-12T07:32:20.539Z,93.7
2017-06-12T07:33:20.525Z,93.98
2017-06-12T07:34:20.515Z,93.79
2017-06-12T07:35:20.507Z,93.89
2017-06-12T07:36:20.495Z,93.46
2017-06-12T07:37:20.488Z,93.74
2017-06-12T07:38:20.475Z,93.27
2017-06-12T07:39:20.470Z,93.94
2017-06-12T07:40:20.456Z,93.46
2017-06-12T07:41:20.451Z,93.74
2017-06-12T07:42:20.443Z,93.46
2017-06-12T07:43:20.431Z,93.18
2017-06-12T07:44:20.427Z,93.37
2017-06-12T07:45:20.413Z,93.37
2017-06-12T07:46:20.404Z,93.37
2017-06-12T07:47:20.393Z,93.27
2017-06-12T07:48:20.383Z,93.37
2017-06-12T07:49:20.575Z,93.46
2017-06-12T07:50:20.364Z,93.27
2017-06-12T07:51:20.354Z,92.79
2017-06-12T07:52:20.346Z,92.7
2017-06-12T07:53:20.336Z,92.79
2017-06-12T07:54:20.325Z,92.74
2017-06-12T07:55:20.316Z,92.74
2017-06-12T07:56:20.307Z,92.36
2017-06-12T07:57:20.298Z,92.65
2017-06-12T07:58:20.291Z,93.03
2017-06-12T07:59:20.278Z,92.99
2017-06-12T08:00:20.473Z,92.79
2017-06-12T08:01:20.261Z,92.79
2017-06-12T08:02:20.250Z,92.79
2017-06-12T08:03:20.241Z,93.18
2017-06-12T08:04:20.233Z,92.51
2017-06-12T08:05:20.225Z,92.51
2017-06-12T08:06:19.913Z,93.08
2017-06-12T08:07:20.204Z,92.51
2017-06-12T08:08:20.194Z,93.27
2017-06-12T08:09:20.187Z,92.89
2017-06-12T08:10:20.176Z,92.7
2017-06-12T08:11:19.867Z,92.6
2017-06-12T08:12:20.157Z,92.51
2017-06-12T08:13:20.150Z,92.89
2017-06-12T08:14:20.139Z,92.6
2017-06-12T08:15:20.164Z,92.79
2017-06-12T08:16:20.118Z,92.7
2017-06-12T08:17:20.112Z,92.7
2017-06-12T08:18:20.100Z,92.22
2017-06-12T08:19:20.094Z,92.7
2017-06-12T08:20:20.084Z,92.7
2017-06-12T08:21:20.072Z,92.89
2017-06-12T08:22:20.267Z,92.03
2017-06-12T08:23:20.052Z,91.84
2017-06-12T08:24:20.045Z,92.18
2017-06-12T08:25:20.037Z,92.27
2017-06-12T08:26:20.027Z,92.18
2017-06-12T08:27:34.655Z,92.08
2017-06-12T08:28:20.209Z,92.13
2017-06-12T08:29:20.000Z,92.51
2017-06-12T08:30:19.994Z,92.03
2017-06-12T08:31:19.983Z,92.03
2017-06-12T08:32:19.975Z,92.03
2017-06-12T08:33:20.165Z,91.75
2017-06-12T08:34:19.958Z,91.99
2017-06-12T08:35:19.947Z,91.22
2017-06-12T08:36:19.939Z,91.31
2017-06-12T08:37:19.928Z,91.51
2017-06-12T08:38:19.918Z,91.99
2017-06-12T08:39:19.911Z,91.89
2017-06-12T08:40:19.903Z,91.94
2017-06-12T08:41:19.891Z,91.75
2017-06-12T08:42:19.887Z,91.75
2017-06-12T08:43:19.878Z,91.84
2017-06-12T08:44:19.868Z,91.46
2017-06-12T08:45:19.858Z,91.46
2017-06-12T08:46:19.852Z,91.17
2017-06-12T08:47:19.540Z,91.08
2017-06-12T08:48:19.837Z,91.08
2017-06-12T08:49:19.827Z,91.46
2017-06-12T08:50:19.818Z,91.27
2017-06-12T08:51:19.811Z,90.99
2017-06-12T08:52:19.801Z,90.61
2017-06-12T08:53:19.490Z,90.8
2017-06-12T08:54:19.786Z,90.8
2017-06-12T08:55:19.775Z,90.32
2017-06-12T08:56:19.764Z,90.42
2017-06-12T08:57:19.759Z,89.94
2017-06-12T08:58:19.749Z,90.22
2017-06-12T08:59:19.740Z,90.22
2017-06-12T09:00:19.730Z,89.84
2017-06-12T09:01:19.721Z,89.94
2017-06-12T09:02:19.712Z,89.65
2017-06-12T09:03:19.706Z,89.65
2017-06-12T09:04:19.693Z,89.51
2017-06-12T09:05:19.887Z,89.51
2017-06-12T09:06:19.678Z,89.41
2017-06-12T09:07:19.669Z,89.41
2017-06-12T09:08:19.662Z,89.22
2017-06-12T09:09:19.350Z,89.22
2017-06-12T09:10:19.643Z,89.13
2017-06-12T09:11:19.636Z,89.41
2017-06-12T09:12:19.627Z,89.18
2017-06-12T09:13:19.616Z,89.08
2017-06-12T09:14:19.303Z,89.18
2017-06-12T09:15:19.600Z,89.27
2017-06-12T09:16:19.587Z,89.47
2017-06-12T09:17:19.583Z,89.27
2017-06-12T09:18:19.570Z,89.22
2017-06-12T09:19:19.565Z,89.36
2017-06-12T09:20:19.553Z,89.36
2017-06-12T09:21:19.542Z,89.07
2017-06-12T09:22:19.537Z,89.07
2017-06-12T09:23:19.528Z,89.22
2017-06-12T09:24:19.516Z,89.51
2017-06-12T09:25:19.508Z,89.51
2017-06-12T09:26:19.502Z,89.98
2017-06-12T09:27:19.493Z,89.61
2017-06-12T09:28:19.484Z,89.98
2017-06-12T09:29:19.473Z,89.98
2017-06-12T09:30:19.166Z,89.7
2017-06-12T09:31:19.457Z,89.84
2017-06-12T09:32:19.447Z,89.55
2017-06-12T09:33:19.441Z,89.65
2017-06-12T09:34:19.432Z,89.94
2017-06-12T09:35:19.425Z,89.84
2017-06-12T09:36:19.412Z,89.84
2017-06-12T09:37:19.409Z,89.84
2017-06-12T09:38:19.396Z,90.36
2017-06-12T09:39:19.393Z,90.03
2017-06-12T09:40:19.385Z,90.5
2017-06-12T09:41:19.373Z,90.6
2017-06-12T09:42:19.366Z,90.26
2017-06-12T09:43:19.353Z,90.36
2017-06-12T09:44:19.347Z,90.22
2017-06-12T09:45:19.341Z,90.03
2017-06-12T09:46:19.338Z,90.73
2017-06-12T09:47:19.324Z,90.73
2017-06-12T09:48:19.316Z,90.93
2017-06-12T09:49:19.309Z,91.64
2017-06-12T09:50:19.301Z,91.36
2017-06-12T09:51:19.292Z,91.74
2017-06-12T09:52:19.285Z,91.98
2017-06-12T09:53:19.276Z,92.07
2017-06-12T09:54:19.271Z,92.5
2017-06-12T09:55:19.263Z,92.5
2017-06-12T09:56:19.254Z,92.98
2017-06-12T09:57:19.250Z,92.98
2017-06-12T09:58:19.244Z,93.08
2017-06-12T09:59:18.928Z,93.08
2017-06-12T10:00:19.222Z,92.98
2017-06-12T10:01:19.216Z,93.17
2017-06-12T10:02:19.210Z,93.46
2017-06-12T10:03:19.202Z,93.08
2017-06-12T10:04:19.192Z,93.41
2017-06-12T10:05:19.187Z,93.51
2017-06-12T10:06:18.876Z,93.79
2017-06-12T10:07:19.199Z,93.98
2017-06-12T10:08:19.165Z,93.79
2017-06-12T10:09:18.854Z,93.98
2017-06-12T10:10:18.847Z,93.7
2017-06-12T10:11:18.839Z,93.7
2017-06-12T10:12:19.131Z,93.17
2017-06-12T10:13:19.127Z,93.46
2017-06-12T10:14:19.117Z,93.12
2017-06-12T10:15:19.112Z,93.7
2017-06-12T10:16:19.102Z,93.6
2017-06-12T10:17:18.793Z,93.51
2017-06-12T10:18:19.090Z,94.07
2017-06-12T10:19:19.084Z,94.03
2017-06-12T10:20:19.073Z,94.12
2017-06-12T10:21:19.070Z,94.7
2017-06-12T10:22:19.060Z,94.56
2017-06-12T10:23:19.052Z,95.08
2017-06-12T10:24:19.048Z,94.79
2017-06-12T10:25:19.038Z,94.89
2017-06-12T10:26:19.030Z,94.98
2017-06-12T10:27:18.722Z,95.12
2017-06-12T10:28:19.016Z,94.56
2017-06-12T10:29:19.004Z,94.74
2017-06-12T10:30:19.000Z,94.27
2017-06-12T10:31:18.992Z,94.46
2017-06-12T10:32:18.984Z,93.98
2017-06-12T10:33:18.974Z,93.7
2017-06-12T10:34:18.963Z,93.89
2017-06-12T10:35:18.957Z,93.22
2017-06-12T10:36:18.948Z,93.32
2017-06-12T10:37:18.939Z,93.03
2017-06-12T10:38:18.931Z,92.65
2017-06-12T10:39:18.920Z,92.55
2017-06-12T10:40:18.915Z,92.74
2017-06-12T10:41:18.602Z,92.46
2017-06-12T10:42:18.893Z,92.46
2017-06-12T10:43:18.888Z,92.08
2017-06-12T10:44:18.880Z,92.27
2017-06-12T10:45:18.870Z,92.55
2017-06-12T10:46:18.863Z,92.36
2017-06-12T10:47:18.854Z,92.08
2017-06-12T10:48:18.846Z,92.55
2017-06-12T10:49:18.834Z,91.89
2017-06-12T10:50:18.827Z,91.89
2017-06-12T10:51:18.517Z,91.6
2017-06-12T10:52:18.509Z,91.51
2017-06-12T10:53:18.500Z,91.31
2017-06-12T10:54:18.794Z,91.41
2017-06-12T10:55:18.784Z,91.41
2017-06-12T10:56:18.474Z,91.41
2017-06-12T10:57:18.464Z,90.94
2017-06-12T10:58:18.759Z,90.94
2017-06-12T10:59:18.451Z,90.65
2017-06-12T11:00:18.440Z,90.94
2017-06-12T11:01:18.738Z,90.41
2017-06-12T11:02:18.725Z,90.41
2017-06-12T11:03:18.416Z,90.7
2017-06-12T11:04:18.411Z,90.22
2017-06-12T11:05:18.702Z,90.26
2017-06-12T11:06:18.695Z,90.17
2017-06-12T11:07:18.684Z,90.55
2017-06-12T11:08:18.687Z,90.45
2017-06-12T11:09:18.366Z,90.74
2017-06-12T11:10:18.362Z,91.03
2017-06-12T11:11:18.655Z,91.22
2017-06-12T11:12:18.343Z,90.93
2017-06-12T11:13:18.638Z,91.22
2017-06-12T11:14:18.630Z,91.69
2017-06-12T11:15:18.621Z,91.41
2017-06-12T11:16:18.614Z,91.55
2017-06-12T11:17:18.608Z,91.46
2017-06-12T11:18:18.600Z,91.84
2017-06-12T11:19:18.589Z,91.55
2017-06-12T11:20:18.579Z,91.27
2017-06-12T11:21:18.572Z,91.55
2017-06-12T11:22:18.567Z,91.69
2017-06-12T11:23:18.560Z,91.5
2017-06-12T11:24:18.550Z,91.6
2017-06-12T11:25:18.539Z,91.88
2017-06-12T11:26:18.545Z,91.84
2017-06-12T11:27:18.532Z,92.03
2017-06-12T11:28:18.520Z,92.03
2017-06-12T11:29:18.508Z,91.79
2017-06-12T11:30:18.504Z,91.74
2017-06-12T11:31:18.495Z,92.03
2017-06-12T11:32:18.485Z,91.55
2017-06-12T11:33:18.476Z,91.17
2017-06-12T11:34:18.467Z,91.55
2017-06-12T11:35:18.458Z,90.98
2017-06-12T11:36:18.454Z,91.08
2017-06-12T11:37:18.442Z,90.98
2017-06-12T11:38:18.434Z,90.74
2017-06-12T11:39:18.425Z,90.84
2017-06-12T11:40:18.418Z,91.13
2017-06-12T11:41:18.106Z,90.84
2017-06-12T11:42:18.102Z,91.03
2017-06-12T11:43:18.094Z,91.69
2017-06-12T11:44:18.085Z,91.41
2017-06-12T11:45:18.377Z,91.36
2017-06-12T11:46:18.372Z,91.65
2017-06-12T11:47:18.360Z,91.94
2017-06-12T11:48:18.353Z,92.03
2017-06-12T11:49:18.344Z,91.74
2017-06-12T11:50:18.339Z,91.94
2017-06-12T11:51:18.328Z,91.36
2017-06-12T11:52:18.320Z,91.17
2017-06-12T11:53:18.314Z,91.46
2017-06-12T11:54:18.306Z,91.79
2017-06-12T11:55:18.298Z,91.84
2017-06-12T11:56:18.289Z,91.94
2017-06-12T11:57:18.280Z,91.7
2017-06-12T11:58:18.269Z,91.27
2017-06-12T11:59:18.265Z,91.36
2017-06-12T12:00:18.253Z,91.5
2017-06-12T12:01:18.248Z,91.31
2017-06-12T12:02:18.239Z,91.27
2017-06-12T12:03:18.232Z,91.27
2017-06-12T12:04:18.222Z,91.65
2017-06-12T12:05:18.216Z,91.55
2017-06-12T12:06:18.206Z,91.17
2017-06-12T12:07:18.196Z,91.22
2017-06-12T12:08:18.192Z,91.22
2017-06-12T12:09:18.181Z,91.41
2017-06-12T12:10:18.174Z,91.41
2017-06-12T12:11:18.163Z,90.94
2017-06-12T12:12:18.155Z,90.84
2017-06-12T12:13:18.147Z,90.75
2017-06-12T12:14:18.140Z,90.84
2017-06-12T12:15:18.130Z,90.27
2017-06-12T12:16:18.123Z,89.98
2017-06-12T12:17:18.133Z,90.36
2017-06-12T12:18:17.803Z,89.7
2017-06-12T12:19:18.097Z,89.7
2017-06-12T12:20:18.087Z,89.41
2017-06-12T12:21:17.778Z,89.41
2017-06-12T12:22:18.070Z,88.84
2017-06-12T12:23:18.062Z,89.22
2017-06-12T12:24:18.050Z,88.84
2017-06-12T12:25:18.041Z,88.65
2017-06-12T12:26:18.035Z,88.56
2017-06-12T12:27:18.029Z,88.65
2017-06-12T12:28:18.018Z,88.65
2017-06-12T12:29:18.006Z,88.65
2017-06-12T12:30:17.999Z,88.79
2017-06-12T12:31:17.993Z,88.89
2017-06-12T12:32:17.984Z,88.89
2017-06-12T12:33:17.974Z,89.07
2017-06-12T12:34:17.965Z,88.89
2017-06-12T12:35:17.958Z,88.79
2017-06-12T12:36:17.951Z,89.36
2017-06-12T12:37:17.942Z,89.17
2017-06-12T12:38:17.933Z,89.17
2017-06-12T12:39:17.925Z,89.17
2017-06-12T12:40:17.914Z,89.46
2017-06-12T12:41:17.907Z,89.36
2017-06-12T12:42:17.896Z,89.55
2017-06-12T12:43:17.890Z,89.75
2017-06-12T12:44:17.882Z,89.94
2017-06-12T12:45:17.881Z,90.03
2017-06-12T12:46:17.866Z,89.75
2017-06-12T12:47:17.860Z,89.79
2017-06-12T12:48:17.856Z,89.75
2017-06-12T12:49:17.838Z,89.65
2017-06-12T12:50:17.831Z,89.84
2017-06-12T12:51:17.822Z,89.69
2017-06-12T12:52:17.818Z,89.6
2017-06-12T12:53:17.805Z,90.26
2017-06-12T12:54:17.802Z,90.17
2017-06-12T12:55:17.794Z,90.22
2017-06-12T12:56:17.786Z,91.03
2017-06-12T12:57:17.772Z,90.55